Time;durP1;ratioP1;P1;durP2;ratioP2;P2;SDS_P1;SDS_P2;PMS_P1;PMS_P2;Temp;Humidity;BMP_temperature;BMP_pressure;BME280_temperature;BME280_humidity;BME280_pressure;Samples;Min_cycle;Max_cycle;Signal;HPM_P1;HPM_P2
2021/03/09 00:00:15;;;;;;;14.02;6.30;;;-2.50;69.30;;;;;;5076399;28;20035;-83
2021/03/09 00:02:41;;;;;;;9.65;6.63;;;-2.50;69.30;;;;;;5076461;28;20024;-82
2021/03/09 00:05:08;;;;;;;13.15;6.53;;;-2.50;69.40;;;;;;5073928;28;20058;-83
2021/03/09 00:07:34;;;;;;;17.80;6.53;;;-2.60;69.50;;;;;;5075500;28;20033;-82
2021/03/09 00:09:59;;;;;;;9.80;6.07;;;-2.60;69.60;;;;;;5078074;28;20024;-83
2021/03/09 00:12:27;;;;;;;13.00;6.10;;;-2.60;69.60;;;;;;5080616;28;20025;-81
2021/03/09 00:14:53;;;;;;;8.90;6.15;;;-2.60;69.70;;;;;;5075832;28;20020;-82
2021/03/09 00:17:19;;;;;;;7.60;5.80;;;-2.60;69.70;;;;;;5076185;28;20090;-84
2021/03/09 00:19:44;;;;;;;8.45;5.28;;;-2.60;69.80;;;;;;5075770;28;20027;-83
2021/03/09 00:22:10;;;;;;;9.25;5.70;;;-2.70;69.80;;;;;;5075518;28;20078;-83
2021/03/09 00:24:36;;;;;;;8.20;5.43;;;-2.70;69.90;;;;;;5075925;28;20052;-81
2021/03/09 00:27:02;;;;;;;7.70;5.25;;;-2.70;69.90;;;;;;5075606;28;20490;-83
2021/03/09 00:29:28;;;;;;;11.93;5.93;;;-2.70;70.00;;;;;;5074830;28;20024;-83
2021/03/09 00:31:54;;;;;;;9.73;6.30;;;-2.70;70.00;;;;;;5074060;28;20082;-83
2021/03/09 00:34:19;;;;;;;7.82;5.90;;;-2.80;70.10;;;;;;5073546;28;20032;-82
2021/03/09 00:36:45;;;;;;;10.55;5.93;;;-2.80;70.10;;;;;;5075398;28;20031;-82
2021/03/09 00:39:11;;;;;;;13.00;6.13;;;-2.80;70.20;;;;;;5075526;28;20028;-82
2021/03/09 00:41:37;;;;;;;11.90;6.38;;;-2.80;70.30;;;;;;5075112;28;20021;-83
2021/03/09 00:44:03;;;;;;;8.68;6.10;;;-2.80;70.30;;;;;;5075080;28;20425;-83
2021/03/09 00:46:29;;;;;;;9.02;5.97;;;-2.90;70.30;;;;;;5076578;28;20103;-80
2021/03/09 00:48:54;;;;;;;12.48;6.03;;;-2.90;70.30;;;;;;5076633;28;20052;-83
2021/03/09 00:51:20;;;;;;;12.93;6.50;;;-2.90;70.40;;;;;;5082342;28;20032;-84
2021/03/09 00:53:46;;;;;;;10.13;6.68;;;-3.00;70.40;;;;;;5076749;28;20127;-85
2021/03/09 00:56:11;;;;;;;11.52;6.05;;;-3.00;70.40;;;;;;5075902;28;20032;-85
2021/03/09 00:58:37;;;;;;;8.57;5.85;;;-3.00;70.50;;;;;;5077829;28;20021;-85
2021/03/09 01:01:03;;;;;;;9.48;6.35;;;-3.00;70.60;;;;;;5078489;28;20410;-86
2021/03/09 01:03:28;;;;;;;10.98;6.13;;;-3.10;70.60;;;;;;5078172;28;20127;-85
2021/03/09 01:05:54;;;;;;;9.77;5.78;;;-3.00;70.80;;;;;;5077999;28;20463;-82
2021/03/09 01:08:20;;;;;;;12.68;7.43;;;-3.10;70.70;;;;;;5074599;28;20134;-82
2021/03/09 01:10:47;;;;;;;10.48;6.10;;;-3.10;70.70;;;;;;5074884;28;20029;-82
2021/03/09 01:13:13;;;;;;;9.77;7.00;;;-3.10;70.80;;;;;;5073641;28;20481;-82
2021/03/09 01:15:39;;;;;;;10.20;6.20;;;-3.10;70.80;;;;;;5074829;28;20103;-82
2021/03/09 01:18:05;;;;;;;10.73;6.22;;;-3.10;70.90;;;;;;5074603;28;20355;-82
2021/03/09 01:20:31;;;;;;;9.55;6.20;;;-3.20;70.90;;;;;;5072993;28;20028;-82
2021/03/09 01:22:56;;;;;;;9.50;6.18;;;-3.20;71.00;;;;;;5072830;28;20028;-81
2021/03/09 01:25:22;;;;;;;10.20;6.20;;;-3.20;71.00;;;;;;5073424;28;20028;-82
2021/03/09 01:27:48;;;;;;;14.63;6.38;;;-3.20;71.00;;;;;;5075917;28;20032;-83
2021/03/09 01:30:16;;;;;;;13.13;5.85;;;-3.20;71.00;;;;;;5076343;28;20029;-83
2021/03/09 01:32:42;;;;;;;14.57;6.07;;;-3.20;71.10;;;;;;5073423;28;20032;-81
2021/03/09 01:35:08;;;;;;;13.50;6.78;;;-3.30;71.00;;;;;;5074193;28;20032;-82
2021/03/09 01:37:34;;;;;;;11.55;6.40;;;-3.30;71.00;;;;;;5075647;28;20032;-82
2021/03/09 01:40:00;;;;;;;9.50;6.10;;;-3.30;71.20;;;;;;5077723;28;20516;-83
2021/03/09 01:42:26;;;;;;;9.77;6.20;;;-3.30;72.00;;;;;;5077397;28;20028;-83
2021/03/09 01:44:52;;;;;;;9.75;6.35;;;-3.20;71.60;;;;;;5077726;28;20028;-83
2021/03/09 01:47:18;;;;;;;11.32;6.55;;;-3.20;71.70;;;;;;5077282;28;20082;-83
2021/03/09 01:49:45;;;;;;;12.07;6.00;;;-3.10;71.70;;;;;;5076828;28;20032;-83
2021/03/09 01:52:11;;;;;;;10.27;5.80;;;-3.10;71.70;;;;;;5077026;28;20033;-83
2021/03/09 01:54:39;;;;;;;12.32;6.55;;;-3.00;71.60;;;;;;5076254;28;20086;-82
2021/03/09 01:57:06;;;;;;;9.05;6.05;;;-3.00;71.50;;;;;;5075241;28;20028;-81
2021/03/09 01:59:32;;;;;;;9.63;5.65;;;-3.00;71.30;;;;;;5076560;28;20031;-83
2021/03/09 02:01:59;;;;;;;12.52;6.70;;;-3.00;71.20;;;;;;5076615;28;20376;-83
2021/03/09 02:04:25;;;;;;;12.63;6.65;;;-3.00;71.10;;;;;;5076066;28;20402;-82
2021/03/09 02:06:51;;;;;;;10.65;5.93;;;-3.00;71.10;;;;;;5082778;28;20025;-82
2021/03/09 02:09:18;;;;;;;11.18;6.65;;;-3.00;71.00;;;;;;5081419;28;20025;-83
2021/03/09 02:11:50;;;;;;;14.57;7.35;;;-3.00;71.10;;;;;;5076965;28;20060;-82
2021/03/09 02:14:20;;;;;;;11.80;6.22;;;-2.90;71.20;;;;;;5075511;28;20024;-82
2021/03/09 02:16:51;;;;;;;12.18;6.78;;;-2.90;71.20;;;;;;5076244;28;20070;-82
2021/03/09 02:19:51;;;;;;;18.98;6.40;;;-2.90;71.10;;;;;;5074492;28;20032;-82
2021/03/09 02:22:34;;;;;;;11.10;6.57;;;-2.90;70.90;;;;;;5074863;28;20063;-83
2021/03/09 02:25:32;;;;;;;12.27;6.38;;;-2.90;70.80;;;;;;5075233;28;20031;-82
2021/03/09 02:28:19;;;;;;;10.77;6.18;;;-3.00;70.50;;;;;;5075767;28;20024;-82
2021/03/09 02:30:46;;;;;;;10.63;6.00;;;-3.00;70.50;;;;;;5075240;28;20028;-82
2021/03/09 02:33:28;;;;;;;14.45;6.47;;;-3.10;70.30;;;;;;5076812;28;20059;-83
2021/03/09 02:36:00;;;;;;;11.40;7.25;;;-3.10;70.40;;;;;;5076498;28;20077;-82
2021/03/09 02:38:29;;;;;;;12.68;6.80;;;-3.20;70.40;;;;;;5076781;28;20020;-82
2021/03/09 02:40:58;;;;;;;12.80;6.45;;;-3.30;70.40;;;;;;5076589;28;20036;-84
2021/03/09 02:43:25;;;;;;;11.68;6.80;;;-3.30;70.50;;;;;;5076138;28;20056;-83
2021/03/09 02:45:52;;;;;;;11.98;6.85;;;-3.30;70.60;;;;;;5077666;28;20352;-83
2021/03/09 02:48:23;;;;;;;12.70;6.90;;;-3.40;70.60;;;;;;5082373;28;20020;-84
2021/03/09 02:50:52;;;;;;;14.02;7.55;;;-3.40;70.70;;;;;;5077747;28;20436;-83
2021/03/09 02:53:18;;;;;;;12.55;6.72;;;-3.40;70.80;;;;;;5077155;28;20028;-83
2021/03/09 02:55:46;;;;;;;12.32;6.65;;;-3.40;70.80;;;;;;5076771;28;20094;-83
2021/03/09 02:58:18;;;;;;;17.73;7.20;;;-3.50;70.90;;;;;;5077175;28;20062;-82
2021/03/09 03:00:49;;;;;;;13.48;6.97;;;-3.50;71.00;;;;;;5076187;28;20017;-82
2021/03/09 03:03:17;;;;;;;13.05;7.47;;;-3.50;71.00;;;;;;5076052;28;20044;-82
2021/03/09 03:05:44;;;;;;;20.20;8.13;;;-3.50;71.00;;;;;;5073906;28;20020;-83
2021/03/09 03:08:11;;;;;;;15.57;7.30;;;-3.60;71.10;;;;;;5076021;28;20024;-82
2021/03/09 03:10:45;;;;;;;16.83;7.30;;;-3.60;71.20;;;;;;5076677;28;20016;-83
2021/03/09 03:13:13;;;;;;;11.60;6.70;;;-3.60;71.20;;;;;;5075098;28;20025;-83
2021/03/09 03:15:41;;;;;;;12.05;6.97;;;-3.60;71.30;;;;;;5076306;28;20021;-83
2021/03/09 03:18:14;;;;;;;8.68;6.38;;;-3.60;71.30;;;;;;5076252;28;20483;-83
2021/03/09 03:20:42;;;;;;;8.43;6.07;;;-3.60;71.40;;;;;;5076617;28;20070;-84
2021/03/09 03:23:09;;;;;;;10.77;6.40;;;-3.70;71.50;;;;;;5078062;28;20021;-83
2021/03/09 03:25:36;;;;;;;11.27;6.70;;;-3.60;71.70;;;;;;5080802;28;20036;-81
2021/03/09 03:28:06;;;;;;;10.30;5.80;;;-3.60;71.90;;;;;;5078595;28;20046;-82
2021/03/09 03:30:31;;;;;;;8.57;6.03;;;-3.60;72.10;;;;;;5076257;28;20459;-83
2021/03/09 03:32:58;;;;;;;18.88;6.60;;;-3.50;72.20;;;;;;5075934;28;20043;-82
2021/03/09 03:35:23;;;;;;;13.90;5.93;;;-3.40;72.30;;;;;;5076445;28;20024;-82
2021/03/09 03:37:49;;;;;;;9.32;5.93;;;-3.30;72.40;;;;;;5076592;28;20028;-82
2021/03/09 03:40:20;;;;;;;10.10;5.63;;;-3.20;72.40;;;;;;5075639;28;20042;-83
2021/03/09 03:42:47;;;;;;;8.50;5.75;;;-3.20;72.40;;;;;;5077314;28;20017;-83
2021/03/09 03:45:15;;;;;;;10.85;5.90;;;-3.10;72.30;;;;;;5074904;28;20035;-83
2021/03/09 03:47:41;;;;;;;10.85;5.95;;;-3.00;72.20;;;;;;5074706;28;20467;-83
2021/03/09 03:50:10;;;;;;;9.07;6.15;;;-2.90;72.20;;;;;;5073205;28;20070;-83
2021/03/09 03:52:47;;;;;;;11.27;6.28;;;-2.80;72.10;;;;;;5073184;28;20041;-83
2021/03/09 03:55:19;;;;;;;13.43;6.47;;;-2.80;72.00;;;;;;5074837;28;20567;-84
2021/03/09 03:57:49;;;;;;;12.32;6.20;;;-2.70;71.90;;;;;;5073143;28;20379;-83
2021/03/09 04:00:18;;;;;;;8.73;5.38;;;-2.60;71.80;;;;;;5073892;28;20378;-83
2021/03/09 04:02:50;;;;;;;11.18;5.78;;;-2.60;71.70;;;;;;5076816;28;20118;-83
2021/03/09 04:05:17;;;;;;;7.38;5.53;;;-2.50;71.70;;;;;;5084320;28;20052;-83
2021/03/09 04:07:45;;;;;;;12.07;6.30;;;-2.50;71.50;;;;;;5074986;28;20025;-83
2021/03/09 04:10:11;;;;;;;12.50;5.78;;;-2.50;71.40;;;;;;5074375;28;20025;-84
2021/03/09 04:12:37;;;;;;;9.23;4.93;;;-2.40;71.20;;;;;;5073037;28;20024;-83
2021/03/09 04:15:05;;;;;;;9.60;4.90;;;-2.40;71.10;;;;;;5074306;28;20027;-83
2021/03/09 04:17:32;;;;;;;22.67;7.40;;;-2.30;71.20;;;;;;5075140;28;20024;-84
2021/03/09 04:20:00;;;;;;;14.93;6.03;;;-2.30;71.20;;;;;;5072503;28;20028;-84
2021/03/09 04:22:26;;;;;;;9.57;5.25;;;-2.30;71.10;;;;;;5071554;28;20032;-83
2021/03/09 04:24:53;;;;;;;10.13;5.40;;;-2.20;71.30;;;;;;5073219;28;20382;-84
2021/03/09 04:27:22;;;;;;;9.57;5.57;;;-2.00;72.00;;;;;;5074327;28;20467;-85
2021/03/09 04:29:56;;;;;;;10.73;5.60;;;-1.60;72.60;;;;;;5072836;28;20379;-85
2021/03/09 04:32:23;;;;;;;18.52;6.72;;;-1.20;72.30;;;;;;5074153;28;20025;-86
2021/03/09 04:34:50;;;;;;;9.57;5.70;;;-0.90;71.00;;;;;;5075877;28;20020;-83
2021/03/09 04:37:17;;;;;;;13.13;6.50;;;-0.90;70.00;;;;;;5071337;28;20516;-83
2021/03/09 04:39:44;;;;;;;16.90;6.90;;;-0.90;69.50;;;;;;5072702;28;20025;-84
2021/03/09 04:42:10;;;;;;;17.50;6.82;;;-1.00;69.10;;;;;;5085536;28;20027;-82
2021/03/09 04:44:39;;;;;;;12.10;6.70;;;-1.10;69.00;;;;;;5083657;28;20035;-83
2021/03/09 04:47:06;;;;;;;13.00;6.85;;;-1.10;68.90;;;;;;5074205;28;20497;-83
2021/03/09 04:49:35;;;;;;;15.10;7.47;;;-1.20;68.80;;;;;;5073984;28;20039;-84
2021/03/09 04:52:01;;;;;;;15.38;7.25;;;-1.20;68.80;;;;;;5074181;28;20059;-84
2021/03/09 04:54:27;;;;;;;18.63;7.68;;;-1.30;68.80;;;;;;5074027;28;20043;-84
2021/03/09 04:56:53;;;;;;;13.35;6.80;;;-1.30;68.80;;;;;;5073676;28;20027;-84
2021/03/09 04:59:19;;;;;;;20.50;7.65;;;-1.30;68.90;;;;;;5073313;28;20020;-84
2021/03/09 05:01:46;;;;;;;15.40;7.47;;;-1.30;68.90;;;;;;5072722;28;20025;-84
2021/03/09 05:04:12;;;;;;;13.45;7.30;;;-1.30;68.90;;;;;;5072975;28;20044;-82
2021/03/09 05:06:38;;;;;;;24.38;7.72;;;-1.30;68.90;;;;;;5072813;28;20053;-83
2021/03/09 05:09:04;;;;;;;20.15;8.52;;;-1.20;68.90;;;;;;5072588;28;20037;-82
2021/03/09 05:11:31;;;;;;;15.05;6.53;;;-1.20;68.90;;;;;;5071185;28;20029;-82
2021/03/09 05:13:58;;;;;;;23.08;6.55;;;-1.20;68.90;;;;;;5075859;28;20025;-82
2021/03/09 05:16:24;;;;;;;18.40;6.80;;;-1.20;68.90;;;;;;5076717;28;20024;-82
2021/03/09 05:18:50;;;;;;;14.65;6.57;;;-1.10;68.90;;;;;;5076840;28;20021;-82
2021/03/09 05:21:16;;;;;;;23.45;7.20;;;-1.10;68.80;;;;;;5081355;28;20024;-81
2021/03/09 05:23:42;;;;;;;23.20;6.78;;;-1.00;68.90;;;;;;5078294;28;20028;-83
2021/03/09 05:26:07;;;;;;;22.63;6.22;;;-0.90;68.90;;;;;;5076823;28;20028;-82
2021/03/09 05:28:33;;;;;;;24.50;6.93;;;-0.80;68.80;;;;;;5076805;28;20502;-83
2021/03/09 05:31:00;;;;;;;19.05;5.45;;;-0.70;68.80;;;;;;5076751;28;20138;-82
2021/03/09 05:33:26;;;;;;;17.02;6.78;;;-0.70;68.60;;;;;;5076019;28;20025;-82
2021/03/09 05:35:51;;;;;;;23.67;7.40;;;-0.60;68.40;;;;;;5076147;28;20025;-83
2021/03/09 05:38:17;;;;;;;12.20;6.40;;;-0.50;68.30;;;;;;5076043;28;20351;-83
2021/03/09 05:40:43;;;;;;;20.98;6.63;;;-0.40;68.20;;;;;;5076679;28;20021;-82
2021/03/09 05:43:10;;;;;;;20.88;8.30;;;-0.30;68.10;;;;;;5074661;28;20108;-83
2021/03/09 05:45:37;;;;;;;17.10;5.85;;;-0.20;68.00;;;;;;5076306;28;20033;-82
2021/03/09 05:48:03;;;;;;;13.23;5.82;;;-0.10;67.80;;;;;;5074886;28;20028;-83
2021/03/09 05:50:29;;;;;;;19.40;7.35;;;0.00;67.60;;;;;;5074939;28;20103;-82
2021/03/09 05:52:55;;;;;;;21.98;7.18;;;0.10;67.50;;;;;;5076173;28;20087;-84
2021/03/09 05:55:21;;;;;;;43.92;7.30;;;0.20;67.30;;;;;;5074783;28;20036;-83
2021/03/09 05:57:48;;;;;;;31.65;9.95;;;0.30;67.30;;;;;;5076528;28;20029;-83
2021/03/09 06:00:14;;;;;;;30.42;10.07;;;0.40;67.20;;;;;;5086353;28;20077;-84
2021/03/09 06:02:41;;;;;;;41.25;10.32;;;0.60;67.10;;;;;;5079705;28;20052;-83
2021/03/09 06:05:09;;;;;;;32.50;8.57;;;0.70;66.90;;;;;;5058030;28;20059;-84
2021/03/09 06:07:36;;;;;;;46.08;9.77;;;0.90;66.50;;;;;;5076504;28;20040;-89
2021/03/09 06:10:18;;;;;;;23.30;9.13;;;1.00;66.40;;;;;;5076152;28;20459;-84
2021/03/09 06:12:43;;;;;;;42.00;8.73;;;1.20;66.30;;;;;;5075945;28;20036;-83
2021/03/09 06:15:09;;;;;;;25.13;8.50;;;1.40;66.30;;;;;;5073940;28;20359;-85
2021/03/09 06:17:38;;;;;;;30.83;8.80;;;1.60;66.10;;;;;;5075550;28;20103;-85
2021/03/09 06:20:28;;;;;;;47.63;13.55;;;1.90;66.00;;;;;;5077052;28;20458;-85
2021/03/09 06:22:58;;;;;;;19.15;7.45;;;2.20;65.60;;;;;;5076733;28;20041;-86
2021/03/09 06:25:25;;;;;;;38.17;8.35;;;2.50;65.00;;;;;;5075638;28;20074;-85
2021/03/09 06:27:51;;;;;;;19.58;6.45;;;2.70;64.60;;;;;;5075870;28;20051;-85
2021/03/09 06:30:26;;;;;;;34.13;6.80;;;3.00;64.10;;;;;;5075658;28;20054;-84
2021/03/09 06:32:52;;;;;;;22.58;7.10;;;3.20;63.60;;;;;;5074614;28;20093;-84
2021/03/09 06:35:26;;;;;;;18.20;7.78;;;3.50;63.10;;;;;;5074011;28;20032;-84
2021/03/09 06:37:52;;;;;;;41.63;10.90;;;3.70;62.20;;;;;;5088770;28;20051;-83
2021/03/09 06:40:17;;;;;;;13.75;7.93;;;3.90;61.70;;;;;;5081817;28;20455;-83
2021/03/09 06:42:43;;;;;;;25.63;6.03;;;4.00;61.10;;;;;;5082684;28;20078;-83
2021/03/09 06:45:11;;;;;;;22.42;7.88;;;4.20;60.90;;;;;;5075590;28;20101;-83
2021/03/09 06:47:45;;;;;;;35.10;9.35;;;4.50;60.60;;;;;;5075586;28;20120;-84
2021/03/09 06:50:13;;;;;;;13.10;5.95;;;4.80;59.60;;;;;;5075823;28;20028;-83
2021/03/09 06:52:43;;;;;;;17.73;6.97;;;4.90;58.60;;;;;;5076355;28;20107;-84
2021/03/09 06:55:12;;;;;;;36.67;14.35;;;4.90;57.40;;;;;;5074999;28;20083;-83
2021/03/09 06:57:39;;;;;;;28.88;12.15;;;4.80;57.40;;;;;;5075468;28;20021;-83
2021/03/09 07:00:10;;;;;;;21.95;10.95;;;4.70;56.40;;;;;;5074752;28;20020;-83
2021/03/09 07:02:37;;;;;;;42.83;16.92;;;4.50;56.10;;;;;;5075199;28;20023;-84
2021/03/09 07:05:09;;;;;;;31.88;10.02;;;4.40;55.90;;;;;;5075711;28;20106;-82
2021/03/09 07:07:37;;;;;;;32.88;13.02;;;4.30;55.80;;;;;;5076187;28;20035;-83
2021/03/09 07:10:07;;;;;;;35.65;13.05;;;4.10;55.80;;;;;;5075100;28;20028;-83
2021/03/09 07:12:34;;;;;;;32.97;13.65;;;4.10;55.80;;;;;;5075597;28;20017;-83
2021/03/09 07:15:00;;;;;;;45.70;15.70;;;4.00;55.60;;;;;;5080865;28;20219;-83
2021/03/09 07:17:28;;;;;;;30.23;11.02;;;3.90;55.50;;;;;;5089221;28;20059;-81
2021/03/09 07:19:55;;;;;;;28.90;8.93;;;3.70;55.20;;;;;;5076843;28;20032;-84
2021/03/09 07:22:23;;;;;;;24.05;10.23;;;3.60;55.00;;;;;;5076524;28;20020;-84
2021/03/09 07:24:57;;;;;;;16.10;8.35;;;3.50;55.00;;;;;;5075182;28;20024;-83
2021/03/09 07:27:35;;;;;;;27.92;14.13;;;3.30;55.00;;;;;;5075381;28;20024;-85
2021/03/09 07:30:05;;;;;;;32.80;14.18;;;3.10;55.00;;;;;;5074480;28;20024;-81
2021/03/09 07:32:31;;;;;;;17.20;8.88;;;3.00;55.10;;;;;;5071736;28;20096;-80
2021/03/09 07:35:00;;;;;;;15.18;7.35;;;2.80;55.10;;;;;;5072532;28;20028;-81
2021/03/09 07:37:26;;;;;;;21.80;7.20;;;2.70;55.30;;;;;;5072293;28;20017;-81
2021/03/09 07:39:52;;;;;;;20.58;8.98;;;2.50;55.40;;;;;;5072015;28;20027;-81
2021/03/09 07:42:18;;;;;;;17.08;8.35;;;2.30;55.90;;;;;;5071768;28;20171;-81
2021/03/09 07:44:46;;;;;;;17.85;9.45;;;2.20;56.40;;;;;;5072461;28;20063;-81
2021/03/09 07:47:14;;;;;;;18.30;10.18;;;2.00;57.00;;;;;;5070917;28;20021;-80
2021/03/09 07:49:41;;;;;;;16.30;7.80;;;1.90;57.30;;;;;;5072718;28;20053;-83
2021/03/09 07:52:25;;;;;;;18.48;7.90;;;1.80;57.50;;;;;;5074170;28;20025;-83
2021/03/09 07:55:20;;;;;;;29.00;14.60;;;1.70;57.90;;;;;;5087454;28;20103;-83
2021/03/09 07:57:46;;;;;;;23.17;10.45;;;1.60;58.60;;;;;;5066681;28;20494;-84
2021/03/09 08:00:13;;;;;;;29.02;14.05;;;1.50;58.90;;;;;;5074000;28;20032;-85
2021/03/09 08:02:45;;;;;;;18.73;9.57;;;1.50;59.70;;;;;;5074763;28;20028;-85
2021/03/09 08:05:16;;;;;;;20.80;10.20;;;1.40;60.40;;;;;;5073899;28;20044;-84
2021/03/09 08:07:50;;;;;;;23.00;12.35;;;1.40;60.90;;;;;;5073138;28;20119;-84
2021/03/09 08:10:34;;;;;;;28.55;14.05;;;1.40;61.50;;;;;;5074211;28;20047;-83
2021/03/09 08:13:10;;;;;;;16.92;11.30;;;1.60;62.30;;;;;;5071696;28;20024;-85
2021/03/09 08:15:38;;;;;;;16.20;9.88;;;1.80;62.80;;;;;;5073858;28;20032;-84
2021/03/09 08:18:27;;;;;;;31.58;14.88;;;2.10;63.20;;;;;;5072882;28;20025;-85
2021/03/09 08:20:57;;;;;;;25.88;14.60;;;2.50;63.20;;;;;;5065566;28;20043;-83
2021/03/09 08:23:35;;;;;;;19.85;10.80;;;2.70;62.10;;;;;;5073097;28;20021;-84
2021/03/09 08:26:09;;;;;;;18.83;10.70;;;2.80;61.50;;;;;;5073493;28;20020;-85
2021/03/09 08:28:37;;;;;;;17.65;10.32;;;2.80;61.40;;;;;;5076963;28;20025;-85
2021/03/09 08:31:11;;;;;;;13.00;8.25;;;2.90;61.10;;;;;;5073850;28;20100;-83
2021/03/09 08:33:48;;;;;;;11.43;8.70;;;3.00;61.30;;;;;;5089425;28;20024;-83
2021/03/09 08:36:19;;;;;;;24.42;13.18;;;3.30;61.60;;;;;;5079920;28;20116;-85
2021/03/09 08:39:04;;;;;;;15.33;9.10;;;3.60;61.30;;;;;;5074921;28;20027;-83
2021/03/09 08:41:35;;;;;;;14.90;8.43;;;4.00;61.50;;;;;;5074766;28;20086;-84
2021/03/09 08:44:20;;;;;;;12.88;7.20;;;4.50;61.20;;;;;;5073896;28;20047;-84
2021/03/09 08:47:05;;;;;;;11.98;6.53;;;4.90;59.80;;;;;;5073587;28;20101;-85
2021/03/09 08:49:34;;;;;;;14.73;8.63;;;5.30;59.20;;;;;;5078457;28;20025;-83
2021/03/09 08:52:06;;;;;;;34.88;18.95;;;5.50;58.20;;;;;;5076233;28;20028;-84
2021/03/09 08:54:45;;;;;;;14.98;6.95;;;5.70;57.30;;;;;;5078247;28;20051;-85
2021/03/09 08:57:22;;;;;;;9.98;6.80;;;5.60;56.40;;;;;;5078969;28;20021;-83
2021/03/09 08:59:51;;;;;;;9.65;6.35;;;5.60;55.90;;;;;;5078507;28;20028;-84
2021/03/09 09:02:24;;;;;;;11.10;6.20;;;5.60;55.30;;;;;;5076710;28;20074;-84
2021/03/09 09:04:58;;;;;;;12.10;7.05;;;5.60;54.80;;;;;;5077074;28;20052;-83
2021/03/09 09:07:39;;;;;;;8.65;5.85;;;5.80;54.60;;;;;;5078715;28;20043;-84
2021/03/09 09:10:13;;;;;;;6.30;5.13;;;6.00;53.90;;;;;;5082926;28;20028;-86
2021/03/09 09:12:44;;;;;;;7.07;4.93;;;6.20;53.70;;;;;;5086160;28;20086;-81
2021/03/09 09:15:16;;;;;;;7.45;5.85;;;6.40;52.90;;;;;;5097582;28;20021;-84
2021/03/09 09:17:46;;;;;;;10.73;6.30;;;6.70;52.10;;;;;;5084854;28;20020;-84
2021/03/09 09:20:24;;;;;;;8.43;5.97;;;6.90;51.40;;;;;;5077900;28;20028;-85
2021/03/09 09:22:52;;;;;;;10.45;6.30;;;6.80;49.80;;;;;;5079776;28;20025;-86
2021/03/09 09:25:19;;;;;;;7.55;5.22;;;6.60;49.70;;;;;;5077216;28;20092;-84
2021/03/09 09:28:04;;;;;;;8.38;5.50;;;6.50;49.20;;;;;;5077836;28;20463;-81
2021/03/09 09:30:35;;;;;;;12.98;6.93;;;6.50;49.00;;;;;;5082076;28;20016;-86
2021/03/09 09:33:03;;;;;;;8.07;5.00;;;6.50;48.70;;;;;;5077558;28;20111;-85
2021/03/09 09:35:30;;;;;;;14.23;7.90;;;6.50;48.40;;;;;;5076917;28;20104;-84
2021/03/09 09:38:07;;;;;;;13.38;7.82;;;6.50;48.50;;;;;;5077243;28;20059;-84
2021/03/09 09:40:36;;;;;;;21.00;10.30;;;6.70;48.20;;;;;;5077258;28;20096;-86
2021/03/09 09:43:19;;;;;;;16.40;9.15;;;6.90;48.90;;;;;;5076457;28;20021;-85
2021/03/09 09:45:50;;;;;;;13.63;7.75;;;7.00;48.10;;;;;;5075268;28;20040;-81
2021/03/09 09:48:21;;;;;;;18.27;9.30;;;7.30;47.80;;;;;;5076164;28;20542;-81
2021/03/09 09:50:52;;;;;;;11.98;7.25;;;7.40;47.00;;;;;;5079306;28;20668;-84
2021/03/09 09:53:30;;;;;;;8.32;6.28;;;7.30;46.80;;;;;;5093910;28;20143;-83
2021/03/09 09:55:56;;;;;;;12.75;7.78;;;7.50;46.90;;;;;;5083009;28;20463;-85
2021/03/09 09:58:22;;;;;;;11.30;6.53;;;7.70;46.60;;;;;;5076065;28;20110;-86
2021/03/09 10:00:55;;;;;;;12.38;7.15;;;7.70;46.00;;;;;;5076430;28;20031;-85
2021/03/09 10:03:21;;;;;;;13.75;7.18;;;7.50;45.20;;;;;;5074465;28;20131;-85
2021/03/09 10:05:47;;;;;;;13.18;8.25;;;7.10;44.50;;;;;;5075218;28;20024;-85
2021/03/09 10:08:33;;;;;;;11.18;7.18;;;6.80;44.60;;;;;;5073277;28;20052;-85
2021/03/09 10:11:00;;;;;;;23.10;9.32;;;6.40;45.00;;;;;;5075328;28;20099;-85
2021/03/09 10:13:26;;;;;;;16.90;8.82;;;6.20;45.50;;;;;;5077100;28;20027;-86
2021/03/09 10:15:52;;;;;;;34.22;12.98;;;6.00;45.90;;;;;;5078578;28;20103;-85
2021/03/09 10:18:26;;;;;;;28.20;8.57;;;6.00;46.20;;;;;;5075648;28;20489;-86
2021/03/09 10:21:13;;;;;;;22.30;7.75;;;5.90;46.50;;;;;;5076789;28;20048;-88
2021/03/09 10:23:51;;;;;;;26.15;7.47;;;5.90;46.70;;;;;;5075673;28;20031;-85
2021/03/09 10:26:25;;;;;;;20.40;6.07;;;6.00;46.80;;;;;;5073498;28;20025;-87
2021/03/09 10:29:18;;;;;;;21.85;6.75;;;6.10;47.40;;;;;;5074460;28;20028;-79
2021/03/09 10:31:48;;;;;;;18.38;8.07;;;6.10;46.50;;;;;;5072322;28;20052;-77
2021/03/09 10:34:14;;;;;;;25.10;6.80;;;6.20;46.50;;;;;;5072875;28;20358;-80
2021/03/09 10:36:51;;;;;;;11.38;6.50;;;6.40;46.40;;;;;;5074738;28;20066;-79
2021/03/09 10:39:17;;;;;;;17.63;7.45;;;6.50;46.70;;;;;;5072849;28;20021;-80
2021/03/09 10:41:43;;;;;;;24.42;7.65;;;6.50;46.00;;;;;;5072870;28;20032;-78
2021/03/09 10:44:36;;;;;;;21.23;8.38;;;6.60;45.80;;;;;;5071273;28;20501;-76
2021/03/09 10:47:06;;;;;;;12.40;6.85;;;6.60;45.40;;;;;;5067556;28;20384;-79
2021/03/09 10:49:33;;;;;;;10.13;6.38;;;6.70;45.30;;;;;;5071498;28;20028;-79
2021/03/09 10:52:01;;;;;;;22.05;7.03;;;6.60;45.10;;;;;;5071208;28;20356;-78
2021/03/09 10:54:27;;;;;;;28.70;8.05;;;6.50;44.90;;;;;;5072438;28;20108;-79
2021/03/09 10:56:53;;;;;;;25.30;7.13;;;6.40;44.80;;;;;;5072257;28;20052;-79
2021/03/09 10:59:19;;;;;;;25.67;8.68;;;6.30;45.00;;;;;;5072593;28;20086;-78
2021/03/09 11:01:44;;;;;;;20.17;8.60;;;6.30;45.10;;;;;;5071882;28;20020;-78
2021/03/09 11:04:10;;;;;;;21.80;12.38;;;6.30;45.10;;;;;;5070634;28;20128;-79
2021/03/09 11:06:36;;;;;;;13.40;7.28;;;6.30;45.20;;;;;;5070837;28;20498;-77
2021/03/09 11:09:02;;;;;;;17.25;7.93;;;6.20;45.00;;;;;;5071529;28;20187;-78
2021/03/09 11:11:28;;;;;;;17.40;8.60;;;6.20;45.20;;;;;;5070424;28;20036;-78
2021/03/09 11:13:54;;;;;;;13.75;6.97;;;6.10;45.20;;;;;;5070589;28;20099;-77
2021/03/09 11:16:19;;;;;;;11.18;7.00;;;6.00;45.10;;;;;;5072187;28;20033;-78
2021/03/09 11:18:45;;;;;;;27.60;10.90;;;5.90;45.20;;;;;;5071031;28;20148;-78
2021/03/09 11:21:11;;;;;;;19.15;10.00;;;5.90;45.20;;;;;;5070402;28;20075;-77
2021/03/09 11:23:39;;;;;;;18.45;8.13;;;5.90;45.20;;;;;;5072364;28;20066;-78
2021/03/09 11:26:06;;;;;;;13.98;7.30;;;5.80;45.20;;;;;;5070512;28;20413;-77
2021/03/09 11:28:35;;;;;;;14.35;6.70;;;5.80;45.20;;;;;;5071491;28;20028;-77
2021/03/09 11:31:01;;;;;;;12.38;7.82;;;5.80;45.20;;;;;;5071310;28;20549;-77
2021/03/09 11:33:27;;;;;;;13.05;7.60;;;5.70;45.00;;;;;;5072169;28;20059;-77
2021/03/09 11:35:53;;;;;;;10.93;6.07;;;5.60;45.00;;;;;;5069783;28;20056;-77
2021/03/09 11:38:20;;;;;;;13.35;6.88;;;5.50;45.10;;;;;;5069833;28;20028;-77
2021/03/09 11:40:46;;;;;;;13.13;7.53;;;5.40;45.30;;;;;;5070995;28;20509;-77
2021/03/09 11:43:12;;;;;;;11.77;6.03;;;5.20;45.50;;;;;;5070529;28;20447;-77
2021/03/09 11:45:38;;;;;;;11.75;5.90;;;4.90;45.50;;;;;;5069829;28;20044;-78
2021/03/09 11:48:04;;;;;;;14.90;8.82;;;4.70;45.60;;;;;;5071181;28;20031;-78
2021/03/09 11:50:32;;;;;;;24.48;14.00;;;4.50;46.10;;;;;;5069781;28;20113;-79
2021/03/09 11:52:58;;;;;;;17.35;10.07;;;4.40;46.50;;;;;;5070108;28;20020;-77
2021/03/09 11:55:24;;;;;;;20.90;9.93;;;4.20;46.70;;;;;;5070239;28;20051;-77
2021/03/09 11:57:50;;;;;;;25.00;14.23;;;4.10;47.00;;;;;;5071169;28;20072;-77
2021/03/09 12:00:18;;;;;;;18.85;10.77;;;4.00;47.40;;;;;;5071978;28;20060;-76
2021/03/09 12:02:44;;;;;;;19.27;9.38;;;3.90;47.80;;;;;;5070245;28;20344;-76
2021/03/09 12:05:10;;;;;;;15.10;7.63;;;3.90;48.30;;;;;;5070993;28;20059;-77
2021/03/09 12:07:36;;;;;;;8.73;6.20;;;4.00;48.60;;;;;;5071478;28;20748;-77
2021/03/09 12:10:03;;;;;;;11.25;5.60;;;4.00;48.70;;;;;;5071367;28;20034;-76
2021/03/09 12:12:29;;;;;;;13.82;6.43;;;4.10;48.30;;;;;;5070881;28;20414;-75
2021/03/09 12:14:55;;;;;;;8.18;6.60;;;4.00;48.10;;;;;;5070790;28;20025;-76
2021/03/09 12:17:21;;;;;;;12.45;7.47;;;3.90;48.20;;;;;;5070845;28;20024;-78
2021/03/09 12:19:46;;;;;;;13.52;6.85;;;3.80;48.30;;;;;;5069629;28;20020;-76
2021/03/09 12:22:12;;;;;;;16.80;6.55;;;3.80;48.50;;;;;;5070218;28;20031;-76
2021/03/09 12:24:38;;;;;;;11.15;6.30;;;3.80;48.60;;;;;;5069085;28;20028;-77
2021/03/09 12:27:04;;;;;;;11.90;7.60;;;3.80;48.60;;;;;;5070359;28;20025;-77
2021/03/09 12:29:29;;;;;;;15.48;9.98;;;3.70;48.60;;;;;;5070763;28;20378;-76
2021/03/09 12:31:55;;;;;;;16.45;8.38;;;3.70;48.70;;;;;;5070640;28;20458;-76
2021/03/09 12:34:21;;;;;;;31.35;8.75;;;3.60;48.80;;;;;;5070918;28;20092;-76
2021/03/09 12:36:46;;;;;;;12.98;6.95;;;3.50;48.90;;;;;;5069249;28;20052;-76
2021/03/09 12:39:12;;;;;;;13.10;6.75;;;3.40;48.90;;;;;;5069021;28;20107;-76
2021/03/09 12:41:38;;;;;;;13.30;6.40;;;3.30;49.00;;;;;;5069270;28;20558;-76
2021/03/09 12:44:04;;;;;;;11.85;7.30;;;3.10;48.90;;;;;;5068974;28;20033;-76
2021/03/09 12:46:29;;;;;;;14.52;6.85;;;3.00;49.00;;;;;;5069453;28;20025;-76
2021/03/09 12:48:55;;;;;;;15.90;9.75;;;3.00;49.50;;;;;;5069625;28;20028;-75
2021/03/09 12:51:21;;;;;;;16.48;9.13;;;3.00;50.20;;;;;;5070216;28;20028;-75